AirNav   TITAN Aviation Fuels
 
 1470 users online  

35CN Farnsworth Ranch Airstrip
Grimes, California, USA

GOING TO GRIMES?


FAA INFORMATION EFFECTIVE 02 DECEMBER 2021

Location

FAA Identifier: 35CN
Lat/Long: 39-05-59.6160N 121-56-03.8910W
39-05.993600N 121-56.064850W
39.0998933,-121.9344142
(estimated)
Elevation: 50 ft. / 15 m (estimated)
Variation: 16E (1985)
From city: 3 miles NW of GRIMES, CA
Time zone: UTC -8 (UTC -7 during Daylight Saving Time)
Zip code: 95950

Airport Operations

Airport use: Private use. Permission required prior to landing
Control tower: no
ARTCC: OAKLAND CENTER
FSS: RANCHO MURIETA FLIGHT SERVICE STATION
Attendance: UNATNDD
Wind indicator: no
Segmented circle: no

Airport Communications

WX ASOS at MYV (17 nm E): 118.475 (530-742-0695)

Nearby radio navigation aids

VOR radial/distance  VOR name  Freq  Var
ILAr050/4.7WILLIAMS VORTAC114.4018E
MYVr254/16.8MARYSVILLE VOR/DME110.8016E
MCCr299/35.9MC CLELLAN VOR/DME109.2017E

Airport Services

Airframe service: NONE
Powerplant service: NONE

Runway Information

Runway N/S

Dimensions: 2600 x 50 ft. / 792 x 15 m
Surface: gravel, in poor condition
RUNWAY N  RUNWAY S
Traffic pattern: leftleft

Airport Ownership and Management from official FAA records

Ownership: Privately-owned
Owner: CAROLYN B. FARNSWORTH TRUST
BOX 9
GRIMES, CA 95950
Phone 916-458-2760
Manager: MARILY F. JOHNSON, TRUSTEE
31 RABLE ROAD
BERKELEY, CA 94705
Phone 510-548-0573

Additional Remarks

A52-S P-LINE & TRANSFORMER N END.
RWY N/S ROUGH, USED ONLY BY AGRICULTURAL ACFT.
FOR CD CTC OAKLAND ARTCC AT 510-745-3380.

Instrument Procedures

There are no published instrument procedures at 35CN.

Some nearby airports with instrument procedures:

O08 - Colusa County Airport (5 nm NW)
KMYV - Yuba County Airport (17 nm E)
KBAB - Beale Air Force Base (23 nm E)
O41 - Watts-Woodland Airport (26 nm S)
KOVE - Oroville Municipal Airport (27 nm NE)
 
Loc | Ops | Rwys | IFR | FBO | Links
Com | Nav | Svcs | Stats | Notes

Sonoma Jet Center
 
Area around 35CN (Farnsworth Ranch Airstrip)
 
Road maps at: MapQuest Bing Google
 
Aerial photo
No photo
 
Sectional chart

 
Airport distance calculator
Flying to Farnsworth Ranch Airstrip? Find the distance to fly.

From to 35CN

Sunrise and sunset
Times for 06-Dec-2021
 Local
(UTC-8)
 Zulu
(UTC)
Morning civil twilight06:4414:44
Sunrise07:1415:14
Sunset16:4400:44
Evening civil twilight17:1401:14

Current date and time
Zulu (UTC)  06-Dec-2021 18:24:01
Local (UTC-8)  06-Dec-2021 10:24:01
 
METAR
KMYV 
17nm E 
061801Z AUTO 00000KT 3SM BR BKN005 OVC012 09/07 A3020 RMK AO2 T00890067
KBAB 
23nm E 
061658Z 25003KT 2 1/4SM BR OVC006 08/02 A3019 RMK AO2A PRESRR SLP227 T00820022 $
KOVE 
28nm NE 
061753Z AUTO 14005KT 3/4SM BR OVC003 09/08 A3020 RMK AO2 SLP230 T00890083 10094 20083 50013
KSMF 
29nm SE 
061753Z 00000KT 2SM BR BKN006 OVC011 09/07 A3019 RMK AO2 SFC VIS 4 CIG 006V010 SLP223 T00890072 10089 20078 51015
KLHM 
29nm SE 
061755Z AUTO 00000KT 3SM OVC004 08/08 A3020 RMK AO1
KDWA 
31nm S 
061755Z AUTO 00000KT 2 1/2SM BR OVC005 08/08 A3022 RMK AO2
TAF
KBAB 
23nm E 
061100Z 0611/0717 15006KT 6000 BR OVC012 QNH3014INS BECMG 0616/0617 21006KT 8000 BR BKN016 OVC150 QNH3010INS BECMG 0620/0621 VRB06KT 6000 -RA BR BKN012 OVC120 QNH3007INS BECMG 0623/0624 VRB06KT 6000 BR SCT080 BKN110 QNH3000INS TEMPO 0704/0711 -SHRA OVC100 BECMG 0711/0712 33006KT 9999 NSW BKN120 QNH2998INS BECMG 0713/0714 33009KT 9999 SKC QNH3000INS TX11/0620Z TN06/0614Z
KSMF 
29nm SE 
061141Z 0612/0712 VRB03KT 5SM BR OVC015 FM062200 17004KT 6SM -SHRA BR SCT015 OVC050 FM070000 VRB03KT 4SM -SHRA BR OVC015 FM070800 34005KT P6SM OVC015
NOTAMs
Click for the latest NOTAMs
NOTAMs are issued by the DoD/FAA and will open in a separate window not controlled by AirNav.

 

 
 

Would you like to see your business listed on this page?

 If your business provides an interesting product or service to pilots, flight crews, aircraft, or users of the Farnsworth Ranch Airstrip, you should consider listing it here.  To start the listing process, click on the button below
 
Add a business
 

Other Pages about Farnsworth Ranch Airstrip

Update a link
 
Copyright © AirNav, LLC. All rights reserved. Privacy Policy  Contact